createdAt,value
2023-04-08T00:00:29.707Z,16.97
2023-04-08T00:02:56.660Z,14.07
2023-04-08T00:05:23.455Z,14.17
2023-04-08T00:07:50.312Z,16.17
2023-04-08T00:10:17.068Z,15.47
2023-04-08T00:12:43.921Z,15.97
2023-04-08T00:15:10.830Z,14.37
2023-04-08T00:17:37.561Z,15.30
2023-04-08T00:20:05.765Z,17.50
2023-04-08T00:22:32.431Z,21.47
2023-04-08T00:25:01.855Z,15.30
2023-04-08T00:27:28.537Z,17.40
2023-04-08T00:29:55.180Z,17.93
2023-04-08T00:32:21.923Z,15.43
2023-04-08T00:34:49.552Z,18.03
2023-04-08T00:37:16.196Z,17.87
2023-04-08T00:39:42.888Z,17.87
2023-04-08T00:42:09.859Z,15.83
2023-04-08T00:44:36.627Z,14.93
2023-04-08T00:47:04.622Z,19.13
2023-04-08T00:49:32.055Z,16.43
2023-04-08T00:52:00.540Z,16.23
2023-04-08T00:54:27.229Z,15.90
2023-04-08T00:56:53.964Z,15.63
2023-04-08T00:59:20.691Z,20.03
2023-04-08T01:02:21.761Z,16.93
2023-04-08T01:04:54.661Z,15.10
2023-04-08T01:07:36.802Z,16.00
2023-04-08T01:10:12.707Z,16.93
2023-04-08T01:12:48.672Z,18.63
2023-04-08T01:15:15.993Z,19.63
2023-04-08T01:17:44.718Z,16.53
2023-04-08T01:20:13.901Z,19.63
2023-04-08T01:23:01.418Z,20.87
2023-04-08T01:25:32.410Z,22.07
2023-04-08T01:28:05.733Z,18.77
2023-04-08T01:30:34.327Z,17.80
2023-04-08T01:33:02.752Z,20.03
2023-04-08T01:35:32.214Z,17.07
2023-04-08T01:38:00.594Z,21.10
2023-04-08T01:40:27.646Z,18.27
2023-04-08T01:42:57.498Z,15.60
2023-04-08T01:45:25.578Z,16.40
2023-04-08T01:47:53.579Z,18.47
2023-04-08T01:50:22.265Z,18.60
2023-04-08T01:52:53.093Z,21.20
2023-04-08T01:55:20.744Z,18.77
2023-04-08T01:57:52.820Z,19.17
2023-04-08T02:00:24.553Z,19.50
2023-04-08T02:02:52.983Z,19.27
2023-04-08T02:05:19.898Z,18.47
2023-04-08T02:07:48.216Z,21.63
2023-04-08T02:10:16.196Z,18.27
2023-04-08T02:12:44.428Z,18.07
2023-04-08T02:15:12.336Z,18.80
2023-04-08T02:17:42.011Z,25.50
2023-04-08T02:20:16.786Z,18.90
2023-04-08T02:23:16.491Z,23.00
2023-04-08T02:25:45.367Z,20.93
2023-04-08T02:28:13.366Z,23.37
2023-04-08T02:30:48.278Z,20.17
2023-04-08T02:33:17.879Z,24.23
2023-04-08T02:35:45.362Z,20.53
2023-04-08T02:38:12.262Z,19.33
2023-04-08T02:40:39.141Z,22.77
2023-04-08T02:43:05.798Z,23.50
2023-04-08T02:45:38.453Z,18.07
2023-04-08T02:48:06.430Z,23.30
2023-04-08T02:50:33.411Z,19.57
2023-04-08T02:53:00.126Z,21.37
2023-04-08T02:55:26.888Z,23.37
2023-04-08T02:57:53.608Z,23.23
2023-04-08T03:00:20.288Z,22.47
2023-04-08T03:02:47.148Z,21.03
2023-04-08T03:05:14.094Z,23.40
2023-04-08T03:07:41.011Z,26.73
2023-04-08T03:10:08.292Z,24.57
2023-04-08T03:12:34.976Z,26.80
2023-04-08T03:15:01.949Z,32.13
2023-04-08T03:17:28.721Z,25.60
2023-04-08T03:19:55.432Z,24.90
2023-04-08T03:22:22.101Z,25.33
2023-04-08T03:24:48.864Z,27.70
2023-04-08T03:27:15.612Z,27.93
2023-04-08T03:29:42.295Z,29.37
2023-04-08T03:32:09.096Z,27.47
2023-04-08T03:34:36.059Z,28.10
2023-04-08T03:37:03.036Z,29.13
2023-04-08T03:39:29.721Z,28.50
2023-04-08T03:41:56.603Z,28.23
2023-04-08T03:44:23.274Z,28.47
2023-04-08T03:46:49.950Z,32.37
2023-04-08T03:49:16.617Z,28.73
2023-04-08T03:51:43.336Z,30.13
2023-04-08T03:54:10.004Z,34.77
2023-04-08T03:56:36.699Z,30.30
2023-04-08T03:59:03.584Z,28.97
2023-04-08T04:01:32.363Z,32.43
2023-04-08T04:03:59.380Z,33.73
2023-04-08T04:06:27.557Z,30.40
2023-04-08T04:08:55.640Z,32.67
2023-04-08T04:11:22.643Z,32.00
2023-04-08T04:13:49.397Z,33.80
2023-04-08T04:16:16.403Z,36.07
2023-04-08T04:18:43.255Z,36.33
2023-04-08T04:21:10.326Z,35.93
2023-04-08T04:23:37.062Z,32.10
2023-04-08T04:26:09.780Z,30.10
2023-04-08T04:28:36.739Z,32.57
2023-04-08T04:31:03.549Z,31.67
2023-04-08T04:33:31.237Z,26.83
2023-04-08T04:35:57.934Z,31.83
2023-04-08T04:38:24.674Z,33.10
2023-04-08T04:40:51.358Z,28.47
2023-04-08T04:43:18.040Z,34.23
2023-04-08T04:45:45.208Z,27.07
2023-04-08T04:48:11.992Z,30.93
2023-04-08T04:50:38.720Z,36.07
2023-04-08T04:53:05.533Z,28.60
2023-04-08T04:55:32.545Z,38.70
2023-04-08T04:58:02.088Z,29.17
2023-04-08T05:00:28.766Z,36.60
2023-04-08T05:02:55.776Z,29.00
2023-04-08T05:05:22.669Z,36.20
2023-04-08T05:07:49.471Z,34.40
2023-04-08T05:10:16.167Z,33.00
2023-04-08T05:12:42.824Z,32.07
2023-04-08T05:15:09.845Z,39.47
2023-04-08T05:17:36.640Z,32.63
2023-04-08T05:20:03.390Z,31.57
2023-04-08T05:22:30.181Z,31.37
2023-04-08T05:24:56.831Z,35.43
2023-04-08T05:27:23.750Z,35.23
2023-04-08T05:29:50.505Z,33.73
2023-04-08T05:32:17.276Z,29.97
2023-04-08T05:34:44.420Z,34.07
2023-04-08T05:37:11.372Z,30.07
2023-04-08T05:39:38.174Z,30.07
2023-04-08T05:42:05.001Z,32.67
2023-04-08T05:44:31.666Z,29.77
2023-04-08T05:46:58.552Z,31.37
2023-04-08T05:49:25.445Z,28.90
2023-04-08T05:51:52.152Z,28.77
2023-04-08T05:54:18.887Z,27.17
2023-04-08T05:56:46.575Z,27.50
2023-04-08T05:59:13.183Z,27.87
2023-04-08T06:01:40.175Z,22.90
2023-04-08T06:04:07.226Z,25.40
2023-04-08T06:06:34.078Z,25.63
2023-04-08T06:09:00.830Z,23.23
2023-04-08T06:11:27.642Z,23.93
2023-04-08T06:13:54.309Z,27.53
2023-04-08T06:16:21.420Z,30.07
2023-04-08T06:18:48.667Z,34.90
2023-04-08T06:21:15.934Z,26.07
2023-04-08T06:23:42.705Z,23.57
2023-04-08T06:26:09.433Z,28.57
2023-04-08T06:28:36.317Z,25.63
2023-04-08T06:31:03.011Z,29.97
2023-04-08T06:33:29.719Z,38.80
2023-04-08T06:36:06.869Z,26.80
2023-04-08T06:38:34.042Z,22.93
2023-04-08T06:41:04.963Z,21.87
2023-04-08T06:43:32.069Z,28.07
2023-04-08T06:45:58.829Z,25.20
2023-04-08T06:48:30.560Z,21.13
2023-04-08T06:50:58.215Z,23.17
2023-04-08T06:53:25.788Z,26.57
2023-04-08T06:55:52.826Z,23.73
2023-04-08T06:58:19.529Z,22.03
2023-04-08T07:00:46.670Z,26.13
2023-04-08T07:03:13.717Z,22.87
2023-04-08T07:05:42.152Z,23.50
2023-04-08T07:08:09.120Z,30.27
2023-04-08T07:10:36.083Z,25.37
2023-04-08T07:13:03.182Z,24.00
2023-04-08T07:15:30.141Z,30.33
2023-04-08T07:17:57.161Z,23.40
2023-04-08T07:20:24.240Z,25.60
2023-04-08T07:22:50.992Z,23.90
2023-04-08T07:25:18.173Z,33.20
2023-04-08T07:27:44.908Z,24.40
2023-04-08T07:30:12.724Z,28.00
2023-04-08T07:32:39.596Z,28.83
2023-04-08T07:35:06.596Z,27.40
2023-04-08T07:37:33.281Z,28.00
2023-04-08T07:39:59.968Z,28.40
2023-04-08T07:42:27.365Z,29.00
2023-04-08T07:44:54.139Z,29.53
2023-04-08T07:47:21.137Z,25.43
2023-04-08T07:49:48.421Z,27.30
2023-04-08T07:52:15.788Z,28.23
2023-04-08T07:54:42.546Z,23.60
2023-04-08T07:57:09.245Z,23.97
2023-04-08T07:59:36.213Z,21.83
2023-04-08T08:02:03.471Z,22.53
2023-04-08T08:04:30.348Z,24.13
2023-04-08T08:06:57.217Z,23.63
2023-04-08T08:09:24.004Z,22.73
2023-04-08T08:11:50.829Z,24.77
2023-04-08T08:14:17.533Z,24.17
2023-04-08T08:16:44.663Z,20.97
2023-04-08T08:19:12.475Z,21.00
2023-04-08T08:21:39.702Z,17.73
2023-04-08T08:24:07.021Z,24.67
2023-04-08T08:26:37.203Z,25.77
2023-04-08T08:29:05.013Z,22.27
2023-04-08T08:31:31.788Z,21.83
2023-04-08T08:33:58.488Z,27.03
2023-04-08T08:36:25.227Z,23.30
2023-04-08T08:38:53.544Z,24.80
2023-04-08T08:41:21.206Z,18.87
2023-04-08T08:43:48.887Z,26.47
2023-04-08T08:46:18.111Z,24.60
2023-04-08T08:48:45.414Z,27.57
2023-04-08T08:51:13.493Z,25.00
2023-04-08T08:53:45.206Z,17.97
2023-04-08T08:58:42.075Z,16.77
2023-04-08T09:01:31.256Z,15.20
2023-04-08T09:04:20.026Z,18.30
2023-04-08T09:06:50.178Z,16.23
2023-04-08T09:09:17.840Z,17.03
2023-04-08T09:11:46.510Z,18.30
2023-04-08T09:14:24.906Z,15.60
2023-04-08T09:16:52.426Z,18.70
2023-04-08T09:19:19.786Z,15.20
2023-04-08T09:21:47.646Z,17.23
2023-04-08T09:24:31.079Z,16.73
2023-04-08T09:26:58.000Z,14.73
2023-04-08T09:29:27.595Z,14.60
2023-04-08T09:31:59.779Z,20.23
2023-04-08T09:34:28.720Z,17.03
2023-04-08T09:36:56.061Z,16.83
2023-04-08T09:39:23.002Z,18.43
2023-04-08T09:41:51.802Z,18.30
2023-04-08T09:44:21.176Z,18.17
2023-04-08T09:46:56.456Z,18.70
2023-04-08T09:49:23.004Z,13.43
2023-04-08T09:51:59.521Z,17.43
2023-04-08T09:54:35.962Z,19.83
2023-04-08T09:57:09.925Z,16.07
2023-04-08T09:59:38.726Z,23.73
2023-04-08T10:02:09.750Z,17.43
2023-04-08T10:04:39.656Z,18.57
2023-04-08T10:07:07.851Z,16.20
2023-04-08T10:09:35.052Z,16.63
2023-04-08T10:12:03.527Z,17.30
2023-04-08T10:14:30.260Z,15.77
2023-04-08T10:17:36.926Z,15.50
2023-04-08T10:20:03.846Z,13.53
2023-04-08T10:22:33.645Z,17.67
2023-04-08T10:25:15.638Z,16.60
2023-04-08T10:27:44.018Z,16.93
2023-04-08T10:30:29.176Z,17.83
2023-04-08T10:32:56.934Z,17.33
2023-04-08T10:35:31.430Z,14.87
2023-04-08T10:37:59.189Z,18.20
2023-04-08T10:40:26.109Z,17.93
2023-04-08T10:42:59.881Z,15.47
2023-04-08T10:45:26.594Z,18.13
2023-04-08T10:47:53.364Z,16.07
2023-04-08T10:50:23.621Z,16.87
2023-04-08T10:52:54.472Z,16.30
2023-04-08T10:55:25.302Z,15.60
2023-04-08T10:57:52.719Z,15.70
2023-04-08T11:00:32.203Z,19.03
2023-04-08T11:03:04.202Z,13.13
2023-04-08T11:05:31.709Z,16.03
2023-04-08T11:07:59.368Z,18.23
2023-04-08T11:10:27.828Z,18.33
2023-04-08T11:13:02.361Z,16.33
2023-04-08T11:15:30.631Z,16.73
2023-04-08T11:17:57.561Z,15.13
2023-04-08T11:20:25.367Z,20.97
2023-04-08T11:22:52.232Z,15.83
2023-04-08T11:25:19.138Z,21.87
2023-04-08T11:27:46.483Z,21.20
2023-04-08T11:30:13.456Z,20.23
2023-04-08T11:32:40.959Z,16.33
2023-04-08T11:35:08.769Z,17.63
2023-04-08T11:37:41.012Z,17.80
2023-04-08T11:40:12.179Z,15.57
2023-04-08T11:42:39.848Z,18.80
2023-04-08T11:45:13.999Z,15.07
2023-04-08T11:47:40.998Z,16.80
2023-04-08T11:50:09.182Z,16.60
2023-04-08T11:52:49.910Z,17.30
2023-04-08T11:55:26.890Z,19.13
2023-04-08T11:57:54.842Z,18.33
2023-04-08T12:00:22.767Z,19.10
2023-04-08T12:02:50.108Z,15.73
2023-04-08T12:05:17.604Z,17.07
2023-04-08T12:07:44.462Z,20.97
2023-04-08T12:10:11.904Z,18.57
2023-04-08T12:12:39.125Z,17.13
2023-04-08T12:15:08.282Z,17.00
2023-04-08T12:17:36.121Z,15.90
2023-04-08T12:20:04.247Z,18.13
2023-04-08T12:22:31.186Z,18.70
2023-04-08T12:24:59.235Z,18.83
2023-04-08T12:27:26.392Z,15.73
2023-04-08T12:29:53.453Z,17.83
2023-04-08T12:32:20.502Z,15.60
2023-04-08T12:34:47.498Z,16.33
2023-04-08T12:37:14.212Z,17.67
2023-04-08T12:39:40.898Z,16.03
2023-04-08T12:42:07.857Z,16.23
2023-04-08T12:44:34.791Z,16.87
2023-04-08T12:47:01.560Z,17.83
2023-04-08T12:49:28.272Z,17.53
2023-04-08T12:51:55.093Z,17.33
2023-04-08T12:54:22.054Z,16.10
2023-04-08T12:56:48.915Z,15.67
2023-04-08T12:59:16.030Z,18.97
2023-04-08T13:01:43.257Z,17.27
2023-04-08T13:04:10.113Z,18.07
2023-04-08T13:06:36.900Z,15.67
2023-04-08T13:09:03.712Z,18.63
2023-04-08T13:11:30.373Z,16.77
2023-04-08T13:13:57.312Z,16.03
2023-04-08T13:16:24.119Z,18.03
2023-04-08T13:18:51.173Z,17.43
2023-04-08T13:21:18.113Z,17.17
2023-04-08T13:23:46.910Z,20.60
2023-04-08T13:26:13.787Z,17.77
2023-04-08T13:28:53.763Z,15.10
2023-04-08T13:31:23.075Z,16.80
2023-04-08T13:33:49.772Z,14.97
2023-04-08T13:36:16.416Z,15.67
2023-04-08T13:38:43.823Z,15.50
2023-04-08T13:41:10.513Z,18.37
2023-04-08T13:43:37.381Z,18.73
2023-04-08T13:46:04.215Z,17.83
2023-04-08T13:48:30.989Z,15.30
2023-04-08T13:50:57.702Z,15.93
2023-04-08T13:53:24.439Z,16.80
2023-04-08T13:55:55.110Z,19.27
2023-04-08T13:58:24.240Z,18.87
2023-04-08T14:00:52.095Z,18.00
2023-04-08T14:03:19.408Z,14.33
2023-04-08T14:05:46.167Z,17.63
2023-04-08T14:08:13.810Z,15.97
2023-04-08T14:10:42.271Z,14.03
2023-04-08T14:13:09.349Z,15.33
2023-04-08T14:15:36.257Z,16.23
2023-04-08T14:18:03.354Z,14.23
2023-04-08T14:20:30.386Z,18.10
2023-04-08T14:22:57.145Z,16.83
2023-04-08T14:25:24.385Z,16.30
2023-04-08T14:27:58.540Z,15.00
2023-04-08T14:30:27.265Z,17.30
2023-04-08T14:32:54.639Z,16.20
2023-04-08T14:35:21.661Z,15.90
2023-04-08T14:37:48.425Z,15.13
2023-04-08T14:40:16.506Z,15.33
2023-04-08T14:42:44.535Z,20.03
2023-04-08T14:45:11.562Z,17.00
2023-04-08T14:47:38.225Z,13.40
2023-04-08T14:50:05.372Z,14.43
2023-04-08T14:52:32.016Z,16.67
2023-04-08T14:54:58.749Z,21.70
2023-04-08T14:57:25.622Z,19.90
2023-04-08T15:00:20.383Z,16.93
2023-04-08T15:02:47.250Z,14.97
2023-04-08T15:05:14.066Z,17.73
2023-04-08T15:07:41.789Z,19.87
2023-04-08T15:10:09.641Z,16.13
2023-04-08T15:12:36.498Z,16.87
2023-04-08T15:15:04.758Z,18.53
2023-04-08T15:17:31.757Z,17.17
2023-04-08T15:19:58.775Z,16.33
2023-04-08T15:22:25.752Z,18.50
2023-04-08T15:24:52.693Z,18.60
2023-04-08T15:27:19.743Z,16.97
2023-04-08T15:29:47.626Z,15.80
2023-04-08T15:32:14.673Z,17.00
2023-04-08T15:34:41.388Z,16.77
2023-04-08T15:37:08.087Z,19.23
2023-04-08T15:39:35.086Z,17.80
2023-04-08T15:42:02.132Z,17.97
2023-04-08T15:44:32.276Z,17.57
2023-04-08T15:46:59.229Z,16.00
2023-04-08T15:49:26.551Z,15.97
2023-04-08T15:51:53.640Z,20.23
2023-04-08T15:54:20.479Z,19.13
2023-04-08T15:56:47.304Z,19.20
2023-04-08T15:59:14.091Z,19.10
2023-04-08T16:01:40.975Z,15.77
2023-04-08T16:04:08.359Z,17.30
2023-04-08T16:06:35.207Z,22.90
2023-04-08T16:09:02.392Z,17.23
2023-04-08T16:11:29.743Z,20.10
2023-04-08T16:13:56.872Z,22.67
2023-04-08T16:16:23.808Z,23.90
2023-04-08T16:18:50.837Z,25.63
2023-04-08T16:21:18.629Z,19.63
2023-04-08T16:23:45.976Z,20.23
2023-04-08T16:26:12.806Z,22.23
2023-04-08T16:28:40.117Z,26.23
2023-04-08T16:31:07.205Z,24.30
2023-04-08T16:33:34.079Z,19.77
2023-04-08T16:36:01.615Z,18.07
2023-04-08T16:38:28.472Z,16.27
2023-04-08T16:40:58.714Z,18.63
2023-04-08T16:43:26.034Z,19.10
2023-04-08T16:45:53.698Z,20.03
2023-04-08T16:48:20.815Z,14.97
2023-04-08T16:50:47.603Z,17.47
2023-04-08T16:53:14.355Z,18.57
2023-04-08T16:55:41.243Z,23.07
2023-04-08T16:58:08.023Z,17.73
2023-04-08T17:00:35.049Z,16.40
2023-04-08T17:03:02.324Z,22.33
2023-04-08T17:05:29.527Z,16.23
2023-04-08T17:07:59.060Z,18.57
2023-04-08T17:10:25.925Z,16.17
2023-04-08T17:12:53.005Z,22.40
2023-04-08T17:15:19.796Z,33.07
2023-04-08T17:17:47.989Z,18.83
2023-04-08T17:20:14.827Z,21.50
2023-04-08T17:22:42.114Z,19.57
2023-04-08T17:25:09.352Z,17.93
2023-04-08T17:27:36.618Z,16.10
2023-04-08T17:30:04.036Z,23.17
2023-04-08T17:32:30.930Z,19.03
2023-04-08T17:34:57.859Z,17.33
2023-04-08T17:37:24.595Z,16.80
2023-04-08T17:39:51.781Z,19.97
2023-04-08T17:42:24.068Z,18.63
2023-04-08T17:44:50.982Z,15.93
2023-04-08T17:47:17.865Z,16.40
2023-04-08T17:49:44.590Z,22.43
2023-04-08T17:52:11.818Z,17.63
2023-04-08T17:54:38.761Z,19.97
2023-04-08T17:57:05.566Z,19.20
2023-04-08T17:59:32.314Z,21.23
2023-04-08T18:01:59.088Z,17.47
2023-04-08T18:04:26.287Z,19.47
2023-04-08T18:06:53.142Z,20.20
2023-04-08T18:09:19.902Z,23.47
2023-04-08T18:11:46.737Z,23.90
2023-04-08T18:14:13.575Z,24.93
2023-04-08T18:16:40.549Z,28.37
2023-04-08T18:19:07.285Z,28.83
2023-04-08T18:21:34.031Z,24.27
2023-04-08T18:24:01.255Z,27.17
2023-04-08T18:26:28.576Z,26.67
2023-04-08T18:28:55.462Z,24.43
2023-04-08T18:31:22.494Z,23.67
2023-04-08T18:33:49.563Z,19.33
2023-04-08T18:36:17.532Z,21.10
2023-04-08T18:38:44.785Z,27.73
2023-04-08T18:41:13.382Z,22.30
2023-04-08T18:43:40.652Z,22.27
2023-04-08T18:46:07.879Z,22.30
2023-04-08T18:48:34.690Z,21.17
2023-04-08T18:51:03.114Z,23.00
2023-04-08T18:53:30.020Z,25.87
2023-04-08T18:55:56.780Z,22.63
2023-04-08T18:58:27.198Z,26.13
2023-04-08T19:00:53.930Z,27.57
2023-04-08T19:03:20.794Z,20.77
2023-04-08T19:05:47.545Z,23.33
2023-04-08T19:08:14.373Z,22.27
2023-04-08T19:10:41.239Z,23.17
2023-04-08T19:13:08.196Z,21.33
2023-04-08T19:15:35.128Z,26.17
2023-04-08T19:18:01.827Z,20.87
2023-04-08T19:20:28.622Z,23.80
2023-04-08T19:22:55.880Z,19.83
2023-04-08T19:25:22.744Z,23.47
2023-04-08T19:27:49.661Z,24.77
2023-04-08T19:30:16.418Z,23.20
2023-04-08T19:32:43.198Z,21.50
2023-04-08T19:35:12.650Z,23.20
2023-04-08T19:37:39.509Z,27.53
2023-04-08T19:40:08.259Z,25.23
2023-04-08T19:42:35.186Z,27.53
2023-04-08T19:45:02.378Z,30.87
2023-04-08T19:47:29.841Z,25.03
2023-04-08T19:49:58.393Z,22.83
2023-04-08T19:52:25.617Z,24.93
2023-04-08T19:54:53.255Z,27.43
2023-04-08T19:57:20.614Z,28.57
2023-04-08T19:59:50.104Z,22.87
2023-04-08T20:02:17.152Z,29.67
2023-04-08T20:04:44.887Z,29.50
2023-04-08T20:07:12.305Z,28.33
2023-04-08T20:09:39.254Z,27.30
2023-04-08T20:12:06.544Z,25.20
2023-04-08T20:14:36.006Z,27.13
2023-04-08T20:17:03.184Z,24.83
2023-04-08T20:19:30.544Z,22.23
2023-04-08T20:21:59.950Z,27.33
2023-04-08T20:24:27.918Z,27.30
2023-04-08T20:26:55.145Z,22.30
2023-04-08T20:29:21.838Z,22.80
2023-04-08T20:31:48.668Z,21.47
2023-04-08T20:34:15.413Z,23.23
2023-04-08T20:36:42.297Z,18.27
2023-04-08T20:39:12.443Z,18.70
2023-04-08T20:41:39.194Z,19.63
2023-04-08T20:44:07.131Z,14.27
2023-04-08T20:46:35.346Z,21.00
2023-04-08T20:49:03.815Z,17.47
2023-04-08T20:51:33.680Z,17.73
2023-04-08T20:54:00.562Z,18.67
2023-04-08T20:56:27.336Z,18.40
2023-04-08T20:58:54.245Z,16.30
2023-04-08T21:01:22.096Z,15.70
2023-04-08T21:03:49.202Z,23.27
2023-04-08T21:06:20.891Z,17.03
2023-04-08T21:08:48.673Z,23.23
2023-04-08T21:11:16.166Z,17.83
2023-04-08T21:13:43.246Z,16.43
2023-04-08T21:16:09.935Z,18.47
2023-04-08T21:18:38.813Z,21.27
2023-04-08T21:21:05.918Z,16.80
2023-04-08T21:23:32.704Z,15.17
2023-04-08T21:26:01.346Z,16.23
2023-04-08T21:28:29.598Z,14.67
2023-04-08T21:30:58.986Z,15.47
2023-04-08T21:33:25.623Z,16.50
2023-04-08T21:35:52.441Z,20.63
2023-04-08T21:38:19.145Z,16.80
2023-04-08T21:40:45.944Z,15.13
2023-04-08T21:43:12.859Z,17.90
2023-04-08T21:45:39.624Z,18.70
2023-04-08T21:48:07.083Z,24.17
2023-04-08T21:50:33.813Z,25.67
2023-04-08T21:53:00.782Z,21.80
2023-04-08T21:55:27.589Z,23.37
2023-04-08T21:57:54.215Z,20.97
2023-04-08T22:00:21.067Z,23.13
2023-04-08T22:02:48.146Z,26.40
2023-04-08T22:05:14.967Z,27.53
2023-04-08T22:07:41.713Z,18.07
2023-04-08T22:10:09.850Z,20.47
2023-04-08T22:12:36.687Z,18.40
2023-04-08T22:15:03.662Z,21.83
2023-04-08T22:17:30.372Z,21.80
2023-04-08T22:19:57.058Z,18.37
2023-04-08T22:22:23.677Z,18.17
2023-04-08T22:24:50.472Z,19.77
2023-04-08T22:27:17.223Z,19.30
2023-04-08T22:29:43.981Z,19.57
2023-04-08T22:32:10.799Z,20.00
2023-04-08T22:34:37.474Z,18.80
2023-04-08T22:37:04.173Z,21.53
2023-04-08T22:39:30.961Z,22.00
2023-04-08T22:41:57.836Z,18.23
2023-04-08T22:44:24.543Z,19.67
2023-04-08T22:46:51.691Z,20.93
2023-04-08T22:49:18.420Z,22.43
2023-04-08T22:51:45.087Z,18.43
2023-04-08T22:54:11.940Z,18.20
2023-04-08T22:56:38.566Z,19.00
2023-04-08T22:59:05.198Z,20.67
2023-04-08T23:01:31.972Z,21.13
2023-04-08T23:03:58.951Z,21.37
2023-04-08T23:06:27.361Z,21.80
2023-04-08T23:08:54.155Z,23.40
2023-04-08T23:11:21.313Z,23.93
2023-04-08T23:13:48.597Z,17.00
2023-04-08T23:16:15.514Z,18.13
2023-04-08T23:18:42.202Z,19.17
2023-04-08T23:21:08.920Z,19.77
2023-04-08T23:23:35.710Z,18.63
2023-04-08T23:26:02.366Z,19.03
2023-04-08T23:28:29.056Z,19.00
2023-04-08T23:30:55.877Z,22.07
2023-04-08T23:33:22.488Z,18.40
2023-04-08T23:35:49.252Z,17.07
2023-04-08T23:38:16.018Z,18.83
2023-04-08T23:40:42.801Z,17.23
2023-04-08T23:43:09.594Z,19.47
2023-04-08T23:45:36.243Z,19.40
2023-04-08T23:48:02.926Z,17.23
2023-04-08T23:50:29.594Z,16.70
2023-04-08T23:52:56.235Z,21.37
2023-04-08T23:55:22.904Z,21.50
2023-04-08T23:57:50.807Z,18.13
